Time;durP1;ratioP1;P1;durP2;ratioP2;P2;SDS_P1;SDS_P2;PMS_P1;PMS_P2;Temp;Humidity;BMP_temperature;BMP_pressure;BME280_temperature;BME280_humidity;BME280_pressure;Samples;Min_cycle;Max_cycle;Signal;HPM_P1;HPM_P2
2024/01/18 00:00:35;;;;;;;1999.90;999.90;;;13.00;99.90;;;;;;5053393;28;20021;-78
2024/01/18 00:03:01;;;;;;;1999.90;999.90;;;13.00;99.90;;;;;;5055262;28;20086;-78
2024/01/18 00:05:27;;;;;;;1999.90;999.90;;;13.10;99.90;;;;;;5055696;28;20045;-78
2024/01/18 00:07:52;;;;;;;1999.90;999.90;;;13.10;99.90;;;;;;5073910;28;20013;-79
2024/01/18 00:10:23;;;;;;;1999.90;999.90;;;13.10;99.90;;;;;;5073086;28;20029;-79
2024/01/18 00:12:48;;;;;;;1999.90;999.90;;;13.10;99.90;;;;;;5073473;28;20077;-80
2024/01/18 00:15:14;;;;;;;1999.90;999.90;;;13.20;99.90;;;;;;5076698;28;20033;-79
2024/01/18 00:17:40;;;;;;;1999.90;999.90;;;13.20;99.90;;;;;;5082399;28;20380;-78
2024/01/18 00:20:06;;;;;;;1999.90;999.90;;;13.00;99.90;;;;;;5073184;28;20032;-78
2024/01/18 00:22:32;;;;;;;1999.90;999.90;;;12.90;99.90;;;;;;5073360;28;20538;-78
2024/01/18 00:24:57;;;;;;;1999.90;999.90;;;12.80;99.90;;;;;;5073571;28;20056;-79
2024/01/18 00:27:23;;;;;;;1999.90;999.90;;;12.80;99.90;;;;;;5073249;28;20047;-78
2024/01/18 00:29:48;;;;;;;1999.90;999.90;;;12.70;99.90;;;;;;5055372;28;20380;-78
2024/01/18 00:32:14;;;;;;;1999.90;999.90;;;12.90;99.90;;;;;;5073068;28;20032;-77
2024/01/18 00:34:40;;;;;;;1999.90;999.90;;;12.90;99.90;;;;;;5073111;28;20021;-78
2024/01/18 00:37:06;;;;;;;1999.90;999.90;;;13.10;99.90;;;;;;5073124;28;20024;-79
2024/01/18 00:39:31;;;;;;;1999.90;999.90;;;13.10;99.90;;;;;;5055114;28;20032;-78
2024/01/18 00:41:57;;;;;;;1999.90;999.90;;;13.10;99.90;;;;;;5073048;28;20063;-78
2024/01/18 00:44:22;;;;;;;1999.90;999.90;;;13.10;99.90;;;;;;5073065;28;20451;-77
2024/01/18 00:46:48;;;;;;;1999.90;999.90;;;13.10;99.90;;;;;;5073008;28;20111;-78
2024/01/18 00:49:14;;;;;;;1999.90;999.90;;;13.10;99.90;;;;;;5072728;28;20044;-78
2024/01/18 00:51:39;;;;;;;1999.90;999.90;;;13.20;99.90;;;;;;5072405;28;20035;-79
2024/01/18 00:54:05;;;;;;;1999.90;999.90;;;13.20;99.90;;;;;;5072801;28;20032;-78
2024/01/18 00:56:31;;;;;;;1999.90;999.90;;;13.20;99.90;;;;;;5073021;28;20536;-77
2024/01/18 00:58:56;;;;;;;1999.90;999.90;;;13.20;99.90;;;;;;5072865;28;20032;-78
2024/01/18 01:01:22;;;;;;;1999.90;999.90;;;13.20;99.90;;;;;;5072314;28;20454;-79
2024/01/18 01:03:48;;;;;;;1999.90;999.90;;;13.20;99.90;;;;;;5072547;28;20391;-78
2024/01/18 01:06:13;;;;;;;1999.90;999.90;;;13.20;99.90;;;;;;5072473;28;20502;-78
2024/01/18 01:08:39;;;;;;;1999.90;999.90;;;13.20;99.90;;;;;;5072752;28;20024;-78
2024/01/18 01:11:06;;;;;;;1999.90;999.90;;;13.20;99.90;;;;;;5072494;28;20438;-79
2024/01/18 01:13:32;;;;;;;1999.90;999.90;;;13.20;99.90;;;;;;5072970;28;20017;-78
2024/01/18 01:15:58;;;;;;;1999.90;999.90;;;13.30;99.90;;;;;;5079652;28;20082;-79
2024/01/18 01:18:23;;;;;;;1999.90;999.90;;;13.20;99.90;;;;;;5078629;28;20021;-78
2024/01/18 01:20:49;;;;;;;1999.90;999.90;;;13.10;99.90;;;;;;5072693;28;20021;-78
2024/01/18 01:23:15;;;;;;;1999.90;999.90;;;13.00;99.90;;;;;;5071106;28;20422;-78
2024/01/18 01:25:40;;;;;;;1999.90;999.90;;;13.00;99.90;;;;;;5071347;28;20063;-78
2024/01/18 01:28:06;;;;;;;1999.90;999.90;;;12.90;99.90;;;;;;5054196;28;20463;-78
2024/01/18 01:30:32;;;;;;;1999.90;999.90;;;12.70;99.90;;;;;;5072509;28;20047;-78
2024/01/18 01:32:58;;;;;;;1999.90;999.90;;;12.60;99.90;;;;;;5054253;28;20517;-78
2024/01/18 01:35:23;;;;;;;1999.90;999.90;;;12.50;99.90;;;;;;5072617;28;20028;-78
2024/01/18 01:37:49;;;;;;;1999.90;999.90;;;12.40;99.90;;;;;;5072904;28;20472;-78
2024/01/18 01:40:15;;;;;;;1999.90;999.90;;;12.30;99.90;;;;;;5072079;28;20029;-77
2024/01/18 01:42:40;;;;;;;1999.90;999.90;;;12.30;99.90;;;;;;5072041;28;20032;-79
2024/01/18 01:45:06;;;;;;;1999.90;999.90;;;12.20;99.90;;;;;;5072293;28;20050;-77
2024/01/18 01:47:32;;;;;;;1999.90;999.90;;;12.10;99.90;;;;;;5072331;28;20055;-78
2024/01/18 01:49:59;;;;;;;1999.90;999.90;;;12.10;99.90;;;;;;5072349;28;20512;-78
2024/01/18 01:52:26;;;;;;;1999.90;999.90;;;12.00;99.90;;;;;;5072420;28;20029;-78
2024/01/18 01:54:52;;;;;;;1999.90;999.90;;;12.00;99.90;;;;;;5072151;28;20052;-78
2024/01/18 01:57:20;;;;;;;1999.90;999.90;;;12.00;99.90;;;;;;5072468;28;20548;-79
2024/01/18 01:59:47;;;;;;;1999.90;999.90;;;11.90;99.90;;;;;;5066677;28;20013;-77
2024/01/18 02:02:13;;;;;;;1999.90;999.90;;;11.90;99.90;;;;;;5071712;28;20545;-78
2024/01/18 02:04:39;;;;;;;1999.90;999.90;;;11.80;99.90;;;;;;5072020;28;20091;-78
2024/01/18 02:07:08;;;;;;;1999.90;999.90;;;11.70;99.90;;;;;;5071184;28;20535;-77
2024/01/18 02:09:34;;;;;;;1999.90;999.90;;;11.70;99.90;;;;;;5071759;28;20029;-77
2024/01/18 02:12:02;;;;;;;1999.90;999.90;;;11.60;99.90;;;;;;5071972;28;20021;-79
2024/01/18 02:14:29;;;;;;;1999.90;999.90;;;11.60;99.90;;;;;;5072302;28;20028;-78
2024/01/18 02:16:55;;;;;;;1999.90;999.90;;;11.50;99.90;;;;;;5065858;28;20123;-76
2024/01/18 02:19:21;;;;;;;1999.90;999.90;;;11.40;99.90;;;;;;5053967;28;20414;-78
2024/01/18 02:21:47;;;;;;;1999.90;999.90;;;11.40;99.90;;;;;;5071930;28;20029;-78
2024/01/18 02:24:32;;;;;;;1999.90;999.90;;;11.30;99.90;;;;;;5072015;28;20028;-78
2024/01/18 02:26:58;;;;;;;1999.90;999.90;;;11.30;99.90;;;;;;5072024;28;20491;-78
2024/01/18 02:29:24;;;;;;;1999.90;999.90;;;11.20;99.90;;;;;;5071913;28;20042;-78
2024/01/18 02:31:49;;;;;;;1999.90;999.90;;;11.10;99.90;;;;;;5071641;28;20037;-76
2024/01/18 02:34:17;;;;;;;1999.90;999.90;;;11.00;99.90;;;;;;5071739;28;20019;-78
2024/01/18 02:36:43;;;;;;;1999.90;999.90;;;11.00;99.90;;;;;;5072391;28;20364;-78
2024/01/18 02:39:09;;;;;;;1999.90;999.90;;;11.00;99.90;;;;;;5075322;28;20016;-78
2024/01/18 02:41:35;;;;;;;1999.90;999.90;;;11.00;99.90;;;;;;5075607;28;20040;-78
2024/01/18 02:44:01;;;;;;;1999.90;999.90;;;11.00;99.90;;;;;;5075506;28;20073;-78
2024/01/18 02:46:31;;;;;;;1999.90;999.90;;;11.00;99.90;;;;;;5074933;28;20031;-77
2024/01/18 02:48:56;;;;;;;1999.90;999.90;;;11.00;99.90;;;;;;5075345;28;20368;-78
2024/01/18 02:51:22;;;;;;;1999.90;999.90;;;11.00;99.90;;;;;;5075175;28;20040;-78
2024/01/18 02:53:48;;;;;;;1999.90;999.90;;;11.00;99.90;;;;;;5075324;28;20032;-78
2024/01/18 02:56:13;;;;;;;1999.90;999.90;;;11.00;99.90;;;;;;5073639;28;20028;-78
2024/01/18 02:58:39;;;;;;;1999.90;999.90;;;10.90;99.90;;;;;;5075511;28;20368;-78
2024/01/18 03:01:05;;;;;;;1999.90;999.90;;;10.90;99.90;;;;;;5074593;28;20376;-78
2024/01/18 03:03:30;;;;;;;1999.90;999.90;;;10.90;99.90;;;;;;5074866;28;20498;-77
2024/01/18 03:05:56;;;;;;;1999.90;999.90;;;10.80;99.90;;;;;;5074739;28;20048;-78
2024/01/18 03:08:21;;;;;;;1999.90;999.90;;;10.70;99.90;;;;;;5074972;28;20027;-78
2024/01/18 03:10:47;;;;;;;1999.90;999.90;;;10.60;99.90;;;;;;5074462;28;20033;-78
2024/01/18 03:13:13;;;;;;;1999.90;999.90;;;10.50;99.90;;;;;;5074079;28;20047;-78
2024/01/18 03:15:38;;;;;;;1999.90;999.90;;;10.40;99.90;;;;;;5078092;28;20033;-77
2024/01/18 03:18:04;;;;;;;1999.90;999.90;;;10.40;99.90;;;;;;5083426;28;20415;-78
2024/01/18 03:20:30;;;;;;;1999.90;999.90;;;10.30;99.90;;;;;;5074664;28;20119;-77
2024/01/18 03:22:56;;;;;;;1999.90;999.90;;;10.30;99.90;;;;;;5074443;28;20041;-78
2024/01/18 03:25:22;;;;;;;1999.90;999.90;;;10.30;99.90;;;;;;5074437;28;20032;-79
2024/01/18 03:27:47;;;;;;;1999.90;999.90;;;10.30;99.90;;;;;;5056521;28;20028;-78
2024/01/18 03:30:13;;;;;;;1999.90;999.90;;;10.20;99.90;;;;;;5056459;28;20039;-78
2024/01/18 03:32:39;;;;;;;1999.90;999.90;;;10.20;99.90;;;;;;5074436;28;20506;-79
2024/01/18 03:35:06;;;;;;;1999.90;999.90;;;10.10;99.90;;;;;;5056220;28;20032;-78
2024/01/18 03:37:31;;;;;;;1999.90;999.90;;;10.10;99.90;;;;;;5074432;28;20075;-78
2024/01/18 03:39:57;;;;;;;1999.90;999.90;;;10.10;99.90;;;;;;5074382;28;20059;-78
2024/01/18 03:42:23;;;;;;;1999.90;999.90;;;9.90;99.90;;;;;;5056190;28;20403;-79
2024/01/18 03:44:48;;;;;;;1999.90;999.90;;;9.80;99.90;;;;;;5074415;28;20416;-79
2024/01/18 03:47:14;;;;;;;1999.90;999.90;;;9.60;99.90;;;;;;5073690;28;20080;-78
2024/01/18 03:49:42;;;;;;;1999.90;999.90;;;9.30;99.90;;;;;;5074122;28;20028;-78
2024/01/18 03:52:12;;;;;;;1999.90;999.90;;;9.00;99.90;;;;;;5074010;28;20017;-78
2024/01/18 03:54:38;;;;;;;1999.90;999.90;;;8.60;99.90;;;;;;5074015;28;20013;-79
2024/01/18 03:57:04;;;;;;;1999.90;999.90;;;8.50;99.90;;;;;;5074033;28;20507;-78
2024/01/18 03:59:29;;;;;;;1999.90;999.90;;;8.40;99.90;;;;;;5072714;28;20027;-78
2024/01/18 04:01:56;;;;;;;1999.90;999.90;;;8.30;99.90;;;;;;5073877;28;20024;-78
2024/01/18 04:04:23;;;;;;;1999.90;999.90;;;8.20;99.90;;;;;;5073572;28;20080;-79
2024/01/18 04:06:49;;;;;;;1999.90;999.90;;;8.20;99.90;;;;;;5073580;28;20016;-77
2024/01/18 04:09:14;;;;;;;1999.90;999.90;;;8.20;99.90;;;;;;5073524;28;20040;-79
2024/01/18 04:11:41;;;;;;;1999.90;999.90;;;8.20;99.90;;;;;;5052069;28;20415;-78
2024/01/18 04:14:07;;;;;;;1999.90;999.90;;;8.20;99.90;;;;;;5035810;28;20391;-79
2024/01/18 04:16:34;;;;;;;1999.90;999.90;;;8.20;99.90;;;;;;5082587;28;20019;-78
2024/01/18 04:19:00;;;;;;;1999.90;999.90;;;8.20;99.90;;;;;;5075110;28;20020;-78
2024/01/18 04:21:25;;;;;;;1999.90;999.90;;;8.20;99.90;;;;;;5055428;28;20034;-78
2024/01/18 04:23:51;;;;;;;1999.90;999.90;;;8.20;99.90;;;;;;5073314;28;20472;-78
2024/01/18 04:26:17;;;;;;;1999.90;999.90;;;8.20;99.90;;;;;;5073509;28;20112;-78
2024/01/18 04:28:42;;;;;;;1999.90;999.90;;;8.20;99.90;;;;;;5073499;28;20403;-78
2024/01/18 04:31:08;;;;;;;1999.90;999.90;;;8.20;99.90;;;;;;5073441;28;20078;-77
2024/01/18 04:33:34;;;;;;;1999.90;999.90;;;8.20;99.90;;;;;;5073183;28;20020;-78
2024/01/18 04:35:59;;;;;;;1999.90;999.90;;;8.20;99.90;;;;;;5073122;28;20032;-78
2024/01/18 04:38:25;;;;;;;1999.90;999.90;;;7.90;99.90;;;;;;5073162;28;20082;-78
2024/01/18 04:40:50;;;;;;;1999.90;999.90;;;7.80;99.90;;;;;;5073315;28;20024;-78
2024/01/18 04:43:16;;;;;;;1999.90;999.90;;;7.70;99.90;;;;;;5073049;28;20031;-78
2024/01/18 04:45:42;;;;;;;1999.90;999.90;;;7.50;99.90;;;;;;5071827;28;20107;-78
2024/01/18 04:48:09;;;;;;;1999.90;999.90;;;7.30;99.90;;;;;;5073005;28;20032;-78
2024/01/18 04:50:34;;;;;;;1999.90;999.90;;;7.30;99.90;;;;;;5071683;28;20025;-78
2024/01/18 04:53:00;;;;;;;1999.90;999.90;;;7.20;99.90;;;;;;5072894;28;20028;-78
2024/01/18 04:55:26;;;;;;;1999.90;999.90;;;7.10;99.90;;;;;;5072946;28;20048;-78
2024/01/18 04:57:52;;;;;;;1999.90;999.90;;;7.00;99.90;;;;;;5072020;28;20455;-78
2024/01/18 05:00:18;;;;;;;1999.90;999.90;;;6.80;99.90;;;;;;5070466;28;20052;-78
2024/01/18 05:02:44;;;;;;;1999.90;999.90;;;6.80;99.90;;;;;;5072237;28;20028;-78
2024/01/18 05:05:11;;;;;;;1999.90;999.90;;;6.80;99.90;;;;;;5076768;28;20048;-76
2024/01/18 05:07:37;;;;;;;1999.90;999.90;;;6.70;99.90;;;;;;5080750;28;20035;-78
2024/01/18 05:10:05;;;;;;;1999.90;999.90;;;6.60;99.90;;;;;;5072465;28;20487;-78
2024/01/18 05:12:31;;;;;;;1999.90;999.90;;;6.60;99.90;;;;;;5072382;28;20135;-78
2024/01/18 05:14:57;;;;;;;1999.90;999.90;;;6.50;99.90;;;;;;5073860;28;20522;-78
2024/01/18 05:17:22;;;;;;;1999.90;999.90;;;6.50;99.90;;;;;;5083348;28;20021;-78
2024/01/18 05:19:48;;;;;;;1999.90;999.90;;;6.40;99.90;;;;;;5072718;28;20036;-78
2024/01/18 05:22:13;;;;;;;1999.90;999.90;;;6.30;99.90;;;;;;5072473;28;20036;-78
2024/01/18 05:24:40;;;;;;;1999.90;999.90;;;6.30;99.90;;;;;;5054607;28;20029;-78
2024/01/18 05:27:07;;;;;;;1999.90;999.90;;;6.20;99.90;;;;;;5072377;28;20487;-78
2024/01/18 05:29:33;;;;;;;1999.90;999.90;;;6.10;99.90;;;;;;5072059;28;20051;-78
2024/01/18 05:31:58;;;;;;;1999.90;999.90;;;6.00;99.90;;;;;;5072400;28;20057;-78
2024/01/18 05:34:24;;;;;;;1999.90;999.90;;;6.00;99.90;;;;;;5072464;28;20071;-77
2024/01/18 05:36:50;;;;;;;1999.90;999.90;;;6.00;99.90;;;;;;5054385;28;20469;-77
2024/01/18 05:39:15;;;;;;;1999.90;999.90;;;6.00;99.90;;;;;;5054358;28;20033;-77
2024/01/18 05:41:41;;;;;;;1999.90;999.90;;;6.00;99.90;;;;;;5072483;28;20025;-78
2024/01/18 05:44:06;;;;;;;1999.90;999.90;;;5.90;99.90;;;;;;5072682;28;20021;-76
2024/01/18 05:46:32;;;;;;;1999.90;999.90;;;5.80;99.90;;;;;;5072112;28;20487;-77
2024/01/18 05:48:58;;;;;;;1999.90;999.90;;;5.90;99.90;;;;;;5072406;28;20088;-78
2024/01/18 05:51:23;;;;;;;1999.90;999.90;;;5.90;99.90;;;;;;5072175;28;20032;-78
2024/01/18 05:53:49;;;;;;;1999.90;999.90;;;5.90;99.90;;;;;;5072264;28;20055;-76
2024/01/18 05:56:15;;;;;;;1999.90;999.90;;;5.90;99.90;;;;;;5072044;28;20494;-78
2024/01/18 05:58:40;;;;;;;1999.90;999.90;;;5.90;99.90;;;;;;5053299;28;20399;-77
2024/01/18 06:01:06;;;;;;;1999.90;999.90;;;5.90;99.90;;;;;;5071749;28;20364;-78
2024/01/18 06:03:32;;;;;;;1999.90;999.90;;;5.80;99.90;;;;;;5054277;28;20114;-77
2024/01/18 06:06:00;;;;;;;1999.90;999.90;;;5.70;99.90;;;;;;5071676;28;20048;-76
2024/01/18 06:08:26;;;;;;;1999.90;999.90;;;5.70;99.90;;;;;;5057178;28;20021;-77
2024/01/18 06:10:53;;;;;;;1999.90;999.90;;;5.60;99.90;;;;;;5086373;28;20482;-77
2024/01/18 06:13:20;;;;;;;1999.90;999.90;;;5.60;99.90;;;;;;5089048;28;20099;-77
2024/01/18 06:15:45;;;;;;;1999.90;999.90;;;5.60;99.90;;;;;;5079290;28;20552;-78
2024/01/18 06:18:11;;;;;;;1999.90;999.90;;;5.60;99.90;;;;;;5066245;28;20025;-78
2024/01/18 06:20:36;;;;;;;1999.90;999.90;;;5.60;99.90;;;;;;5075574;28;20091;-78
2024/01/18 06:23:02;;;;;;;1999.90;999.90;;;5.60;99.90;;;;;;5075464;28;20487;-78
2024/01/18 06:25:28;;;;;;;1999.90;999.90;;;5.60;99.90;;;;;;5076026;28;20031;-76
2024/01/18 06:27:53;;;;;;;1999.90;999.90;;;5.60;99.90;;;;;;5075107;28;20094;-76
2024/01/18 06:30:19;;;;;;;1999.90;999.90;;;5.70;99.90;;;;;;5073552;28;20529;-76
2024/01/18 06:32:45;;;;;;;1999.90;999.90;;;5.70;99.90;;;;;;5066573;28;20429;-76
2024/01/18 06:35:11;;;;;;;1999.90;999.90;;;5.60;99.90;;;;;;5073558;28;20025;-77
2024/01/18 06:37:38;;;;;;;1999.90;999.90;;;5.50;99.90;;;;;;5095115;28;20069;-76
2024/01/18 06:40:04;;;;;;;1999.90;999.90;;;5.60;99.90;;;;;;5079002;28;20111;-76
2024/01/18 06:42:31;;;;;;;1999.90;999.90;;;5.60;99.90;;;;;;5074974;28;20115;-77
2024/01/18 06:44:57;;;;;;;1999.90;999.90;;;5.50;99.90;;;;;;5089663;28;20024;-76
2024/01/18 06:47:26;;;;;;;1999.90;999.90;;;5.50;99.90;;;;;;5078599;28;20036;-76
2024/01/18 06:49:52;;;;;;;1999.90;999.90;;;5.50;99.90;;;;;;5061158;28;20402;-76
2024/01/18 06:52:18;;;;;;;1999.90;999.90;;;5.50;99.90;;;;;;5074233;28;20028;-78
2024/01/18 06:54:44;;;;;;;1999.90;999.90;;;5.40;99.90;;;;;;5075097;28;20028;-76
2024/01/18 06:57:09;;;;;;;1999.90;999.90;;;5.50;99.90;;;;;;5062485;28;20028;-77
2024/01/18 06:59:35;;;;;;;1999.90;999.90;;;5.40;99.90;;;;;;5059283;28;20380;-78
2024/01/18 07:02:02;;;;;;;1999.90;999.90;;;5.40;99.90;;;;;;5079711;28;20024;-78
2024/01/18 07:04:28;;;;;;;1999.90;999.90;;;5.50;99.90;;;;;;5078271;28;20079;-76
2024/01/18 07:06:54;;;;;;;1999.90;999.90;;;5.40;99.90;;;;;;5071694;28;20483;-77
2024/01/18 07:09:19;;;;;;;1999.90;999.90;;;5.30;99.90;;;;;;5081755;28;20465;-76
2024/01/18 07:11:46;;;;;;;1999.90;999.90;;;5.30;99.90;;;;;;5075420;28;20029;-77
2024/01/18 07:14:11;;;;;;;1999.90;999.90;;;5.40;99.90;;;;;;5071409;28;20024;-78
2024/01/18 07:16:37;;;;;;;1999.90;999.90;;;5.30;99.90;;;;;;5079791;28;20392;-76
2024/01/18 07:19:03;;;;;;;1999.90;999.90;;;5.30;99.90;;;;;;5072518;28;20095;-77
2024/01/18 07:21:28;;;;;;;1999.90;999.90;;;5.30;99.90;;;;;;5067430;28;20035;-76
2024/01/18 07:23:54;;;;;;;1999.90;999.90;;;5.30;99.90;;;;;;5070027;28;20373;-76
2024/01/18 07:26:20;;;;;;;1999.90;999.90;;;5.30;99.90;;;;;;5061524;28;20060;-77
2024/01/18 07:28:46;;;;;;;1999.90;999.90;;;5.30;99.90;;;;;;5071818;28;20037;-80
2024/01/18 07:31:11;;;;;;;1999.90;999.90;;;5.30;99.90;;;;;;5065163;28;20402;-75
2024/01/18 07:33:37;;;;;;;1999.90;999.90;;;5.30;99.90;;;;;;5073788;28;20077;-77
2024/01/18 07:36:03;;;;;;;1999.90;999.90;;;5.30;99.90;;;;;;5069408;28;20096;-75
2024/01/18 07:38:29;;;;;;;1999.90;999.90;;;5.30;99.90;;;;;;5071320;28;20033;-76
2024/01/18 07:40:55;;;;;;;1999.90;999.90;;;5.30;99.90;;;;;;5090666;28;20060;-79
2024/01/18 07:43:21;;;;;;;1999.90;999.90;;;5.30;99.90;;;;;;5070268;28;20078;-74
2024/01/18 07:45:46;;;;;;;1999.90;999.90;;;5.30;99.90;;;;;;5071657;28;20021;-75
2024/01/18 07:48:12;;;;;;;1999.90;999.90;;;5.30;99.90;;;;;;5071412;28;20426;-77
2024/01/18 07:50:38;;;;;;;1999.90;999.90;;;5.30;99.90;;;;;;5068973;28;20028;-77
2024/01/18 07:53:04;;;;;;;1999.90;999.90;;;5.30;99.90;;;;;;5070161;28;20028;-79
2024/01/18 07:55:30;;;;;;;1999.90;999.90;;;5.30;99.90;;;;;;5071250;28;20112;-76
2024/01/18 07:57:56;;;;;;;1999.90;999.90;;;5.30;99.90;;;;;;5074063;28;20458;-75
2024/01/18 08:00:21;;;;;;;1999.90;999.90;;;5.30;99.90;;;;;;5071006;28;20025;-77
2024/01/18 08:02:47;;;;;;;1999.90;999.90;;;5.30;99.90;;;;;;5070224;28;20438;-77
2024/01/18 08:05:13;;;;;;;1999.90;999.90;;;5.30;99.90;;;;;;5080164;28;20052;-77
2024/01/18 08:07:38;;;;;;;1999.90;999.90;;;5.30;99.90;;;;;;5053363;28;20426;-79
2024/01/18 08:10:06;;;;;;;1999.90;999.90;;;5.30;99.90;;;;;;5078405;28;20032;-78
2024/01/18 08:12:31;;;;;;;1999.90;999.90;;;5.30;99.90;;;;;;5072782;28;20534;-75
2024/01/18 08:14:57;;;;;;;1999.90;999.90;;;5.30;99.90;;;;;;5081020;28;20028;-75
2024/01/18 08:17:23;;;;;;;1999.90;999.90;;;5.30;99.90;;;;;;5083516;28;20032;-77
2024/01/18 08:19:48;;;;;;;1999.90;999.90;;;5.30;99.90;;;;;;5072865;28;20024;-78
2024/01/18 08:22:15;;;;;;;1999.90;999.90;;;5.30;99.90;;;;;;5081090;28;20024;-78
2024/01/18 08:24:41;;;;;;;1999.90;999.90;;;5.40;99.90;;;;;;5070670;28;20036;-76
2024/01/18 08:27:07;;;;;;;1999.90;999.90;;;5.40;99.90;;;;;;5076444;28;20037;-76
2024/01/18 08:29:34;;;;;;;1999.90;999.90;;;5.40;99.90;;;;;;5076449;28;20032;-79
2024/01/18 08:32:01;;;;;;;1999.90;999.90;;;5.40;99.90;;;;;;5077659;28;20029;-77
2024/01/18 08:34:27;;;;;;;1999.90;999.90;;;5.40;99.90;;;;;;5057114;28;20517;-76
2024/01/18 08:36:52;;;;;;;1999.90;999.90;;;5.40;99.90;;;;;;5070380;28;20095;-76
2024/01/18 08:39:19;;;;;;;1999.90;999.90;;;5.40;99.90;;;;;;5080257;28;20081;-75
2024/01/18 08:41:44;;;;;;;1999.90;999.90;;;5.40;99.90;;;;;;5069882;28;20111;-75
2024/01/18 08:44:10;;;;;;;1999.90;999.90;;;5.40;99.90;;;;;;5072190;28;20123;-79
2024/01/18 08:46:39;;;;;;;1999.90;999.90;;;5.40;99.90;;;;;;5060733;28;20028;-76
2024/01/18 08:49:04;;;;;;;1999.90;999.90;;;5.40;99.90;;;;;;5069773;28;20123;-76
2024/01/18 08:51:30;;;;;;;1999.90;999.90;;;5.40;99.90;;;;;;5069289;28;20447;-77
2024/01/18 08:53:56;;;;;;;1999.90;999.90;;;5.40;99.90;;;;;;5059689;28;20028;-75
2024/01/18 08:56:21;;;;;;;1999.90;999.90;;;5.40;99.90;;;;;;5068884;28;20435;-76
2024/01/18 08:58:47;;;;;;;1999.90;999.90;;;5.30;99.90;;;;;;5070027;28;20036;-77
2024/01/18 09:01:13;;;;;;;1999.90;999.90;;;5.30;99.90;;;;;;5069252;28;20032;-74
2024/01/18 09:03:39;;;;;;;1999.90;999.90;;;5.30;99.90;;;;;;5069532;28;20033;-75
2024/01/18 09:06:05;;;;;;;1999.90;999.90;;;5.30;99.90;;;;;;5077065;28;20028;-75
2024/01/18 09:08:34;;;;;;;1999.90;999.90;;;5.30;99.90;;;;;;5075338;28;20501;-76
2024/01/18 09:11:00;;;;;;;1999.90;999.90;;;5.30;99.90;;;;;;5074677;28;20017;-76
2024/01/18 09:13:26;;;;;;;1999.90;999.90;;;5.30;99.90;;;;;;5073140;28;20111;-76
2024/01/18 09:15:52;;;;;;;1999.90;999.90;;;5.30;99.90;;;;;;5069806;28;20107;-76
2024/01/18 09:18:17;;;;;;;1999.90;999.90;;;5.30;99.90;;;;;;5069752;28;20468;-72
2024/01/18 09:20:45;;;;;;;1999.90;999.90;;;5.30;99.90;;;;;;5072622;28;20552;-75
2024/01/18 09:23:12;;;;;;;1999.90;999.90;;;5.30;99.90;;;;;;5080687;28;20082;-79
2024/01/18 09:25:38;;;;;;;1999.90;999.90;;;5.40;99.90;;;;;;5073238;28;20016;-74
2024/01/18 09:28:05;;;;;;;1999.90;999.90;;;5.40;99.90;;;;;;5072646;28;20037;-74
2024/01/18 09:30:30;;;;;;;1999.90;999.90;;;5.30;99.90;;;;;;5070463;28;20399;-74
2024/01/18 09:32:56;;;;;;;1999.90;999.90;;;5.20;99.90;;;;;;5071597;28;20037;-75
2024/01/18 09:35:21;;;;;;;1999.90;999.90;;;5.10;99.90;;;;;;5075110;28;20024;-74
2024/01/18 09:37:47;;;;;;;1999.90;999.90;;;5.10;99.90;;;;;;5057295;28;20054;-75
2024/01/18 09:40:13;;;;;;;1999.90;999.90;;;5.10;99.90;;;;;;5073181;28;20288;-74
2024/01/18 09:42:45;;;;;;;1999.90;999.90;;;5.10;99.90;;;;;;5065169;28;20036;-74
2024/01/18 09:45:13;;;;;;;1999.90;999.90;;;5.20;99.90;;;;;;5064970;28;20029;-74
2024/01/18 09:47:44;;;;;;;1999.90;999.90;;;5.20;99.90;;;;;;5076927;28;20435;-74
2024/01/18 09:50:10;;;;;;;1999.90;999.90;;;5.10;99.90;;;;;;5073331;28;20032;-75
2024/01/18 09:52:36;;;;;;;1999.90;999.90;;;5.20;99.90;;;;;;5078085;28;20101;-74
2024/01/18 09:55:04;;;;;;;1999.90;999.90;;;5.20;99.90;;;;;;5083392;28;20035;-74
2024/01/18 09:57:34;;;;;;;1999.90;999.90;;;5.10;99.90;;;;;;5058386;28;20120;-73
2024/01/18 10:00:03;;;;;;;1999.90;999.90;;;5.10;99.90;;;;;;5068853;28;20071;-74
2024/01/18 10:02:29;;;;;;;1999.90;999.90;;;5.10;99.90;;;;;;5071174;28;20068;-74
2024/01/18 10:04:58;;;;;;;1999.90;999.90;;;5.10;99.90;;;;;;5081742;28;20333;-74
2024/01/18 10:07:24;;;;;;;1999.90;999.90;;;5.10;99.90;;;;;;5093635;28;20028;-73
2024/01/18 10:09:49;;;;;;;1999.90;999.90;;;5.10;99.90;;;;;;5085666;28;20050;-75
2024/01/18 10:12:15;;;;;;;1999.90;999.90;;;5.10;99.90;;;;;;5082465;28;20443;-74
2024/01/18 10:14:42;;;;;;;1999.90;999.90;;;5.10;99.90;;;;;;5070665;28;20034;-75
2024/01/18 10:17:29;;;;;;;1999.90;999.90;;;5.10;99.90;;;;;;5073499;28;20070;-75
2024/01/18 10:19:56;;;;;;;1999.90;999.90;;;5.10;99.90;;;;;;5068968;28;20039;-73
2024/01/18 10:22:22;;;;;;;1999.90;999.90;;;5.10;99.90;;;;;;5072337;28;20456;-72
2024/01/18 10:24:49;;;;;;;1999.90;999.90;;;5.30;99.90;;;;;;5072641;28;20040;-75
2024/01/18 10:27:18;;;;;;;1999.90;999.90;;;5.30;99.90;;;;;;5070598;28;20040;-75
2024/01/18 10:29:44;;;;;;;1999.90;999.90;;;5.40;99.90;;;;;;5072191;28;20056;-76
2024/01/18 10:32:09;;;;;;;1999.90;999.90;;;5.30;99.90;;;;;;5073997;28;20035;-72
2024/01/18 10:34:39;;;;;;;1999.90;999.90;;;5.20;99.90;;;;;;5077619;28;20491;-75
2024/01/18 10:37:05;;;;;;;1999.90;999.90;;;5.20;99.90;;;;;;5072452;28;20040;-72
2024/01/18 10:39:41;;;;;;;1999.90;999.90;;;5.30;99.90;;;;;;5073533;28;20107;-73
2024/01/18 10:42:08;;;;;;;1999.90;999.90;;;5.30;99.90;;;;;;5073011;28;20043;-72
2024/01/18 10:44:41;;;;;;;1999.90;999.90;;;5.40;99.90;;;;;;5071002;28;20020;-73
2024/01/18 10:47:11;;;;;;;1999.90;999.90;;;5.50;99.90;;;;;;5080860;28;20051;-75
2024/01/18 10:49:37;;;;;;;1999.90;999.90;;;5.60;99.90;;;;;;5061913;28;20036;-76
2024/01/18 10:52:04;;;;;;;1999.90;999.90;;;5.50;99.90;;;;;;5054097;28;20406;-75
2024/01/18 10:54:30;;;;;;;1999.90;999.90;;;5.50;99.90;;;;;;5077807;28;20036;-72
2024/01/18 10:57:00;;;;;;;1999.90;999.90;;;5.40;99.90;;;;;;5059128;28;20043;-72
2024/01/18 10:59:30;;;;;;;1999.90;999.90;;;5.50;99.90;;;;;;5086760;28;20028;-72
2024/01/18 11:01:59;;;;;;;1999.90;999.90;;;5.70;99.90;;;;;;5071475;28;20064;-75
2024/01/18 11:04:27;;;;;;;1999.90;999.90;;;5.70;99.90;;;;;;5072065;28;20119;-76
2024/01/18 11:06:55;;;;;;;1999.90;999.90;;;6.10;99.90;;;;;;5071683;28;20024;-75
2024/01/18 11:09:26;;;;;;;1999.90;999.90;;;6.00;99.90;;;;;;5054334;28;20039;-75
2024/01/18 11:11:53;;;;;;;1999.90;999.90;;;6.00;99.90;;;;;;5072128;28;20035;-74
2024/01/18 11:14:20;;;;;;;1999.90;999.90;;;6.10;99.90;;;;;;5071696;28;20023;-76
2024/01/18 11:16:45;;;;;;;1999.90;999.90;;;6.20;99.90;;;;;;5067939;28;20028;-73
2024/01/18 11:19:11;;;;;;;1999.90;999.90;;;6.20;99.90;;;;;;5089488;28;20028;-72
2024/01/18 11:21:40;;;;;;;1999.90;999.90;;;6.10;99.90;;;;;;5072551;28;20028;-72
2024/01/18 11:24:07;;;;;;;1999.90;999.90;;;5.90;99.90;;;;;;5072688;28;20135;-72
2024/01/18 11:26:33;;;;;;;1999.90;999.90;;;5.90;99.90;;;;;;5071954;28;20446;-72
2024/01/18 11:29:19;;;;;;;1999.90;999.90;;;5.80;99.90;;;;;;5071827;28;20032;-73
2024/01/18 11:31:47;;;;;;;1999.90;999.90;;;5.90;99.90;;;;;;5078379;28;20024;-75
2024/01/18 11:34:34;;;;;;;1999.90;999.90;;;5.90;99.90;;;;;;5075233;28;20020;-76
2024/01/18 11:37:10;;;;;;;1999.90;999.90;;;5.80;99.90;;;;;;5074150;28;20491;-73
2024/01/18 11:39:48;;;;;;;1999.90;999.90;;;5.80;99.90;;;;;;5079390;28;20077;-76
2024/01/18 11:42:21;;;;;;;1999.90;999.90;;;5.80;99.90;;;;;;5072746;28;20020;-75
2024/01/18 11:45:16;;;;;;;1999.90;999.90;;;5.70;99.90;;;;;;5071922;28;20086;-76
2024/01/18 11:47:42;;;;;;;1999.90;999.90;;;5.80;99.90;;;;;;5084910;28;20039;-76
2024/01/18 11:50:11;;;;;;;1999.90;999.90;;;5.70;99.90;;;;;;5077046;28;20391;-73
2024/01/18 11:52:38;;;;;;;1999.90;999.90;;;5.70;99.90;;;;;;5070335;28;20028;-73
2024/01/18 11:55:04;;;;;;;1999.90;999.90;;;5.80;99.90;;;;;;5070841;28;20025;-76
2024/01/18 11:57:31;;;;;;;1999.90;999.90;;;5.80;99.90;;;;;;5071558;28;20112;-73
2024/01/18 11:59:58;;;;;;;1999.90;999.90;;;5.80;99.90;;;;;;5072387;28;20035;-76
2024/01/18 12:02:24;;;;;;;1999.90;999.90;;;5.90;99.90;;;;;;5091006;28;20032;-76